• Join FlightAware (Why Join?)
  • Login
  • US Flag 
06:12AM EDT


 

Airport Tracker/Info


-or-


 

Live Flight TrackerFlight Track Log ✈ SWA542 ✈ 21-Apr-2013 ✈ KMCO - KSAT

Flight Track Log - Related Links

Times and Time Zones

All times are in EDT time to prevent confusion due to time zone crossing. See the SWA542 flight status page for this flight to view local times or setup timezone preferences in your user account.

Time Position Orientation Groundspeed Altitude Reporting Facility
EDT Latitude Longitude Course Direction KTS MPH feet Rate Location/Type
11:23AM 28.4500 -81.3167 360° North 151 174 700  Level Orlando TRACON
11:24AM 28.4667 -81.3167 360° North 172 198 1,900 1,920 Climbing Orlando TRACON
11:25AM 28.5333 -81.3167 360° North 225 259 3,800 2,100 Climbing Orlando TRACON
11:26AM 28.5833 -81.3500 330° Northwest 293 337 6,200 1,980 Climbing Orlando TRACON
11:27AM 28.5667 -81.4333 257° West 290 334 7,800 2,040 Climbing Orlando TRACON
11:29AM 28.5506 -81.6306 265° West 301 346 12,600 2,400 Climbing Jacksonville Center
11:30AM 28.5225 -81.7372 253° West 324 373 15,400 2,700 Climbing Jacksonville Center
11:31AM 28.4922 -81.8486 253° West 356 410 18,000 2,640 Climbing Jacksonville Center
11:32AM 28.4556 -81.9669 251° West 380 437 20,700 2,760 Climbing Jacksonville Center
11:33AM 28.4167 -82.0947 251° West 393 452 23,600 2,460 Climbing Jacksonville Center
11:34AM 28.3797 -82.2156 251° West 398 458 25,700 1,800 Climbing Jacksonville Center
11:35AM 28.3408 -82.3383 250° West 410 472 27,300 1,800 Climbing Jacksonville Center
11:36AM 28.3017 -82.4636 250° West 420 483 29,300 2,340 Climbing Jacksonville Center
11:37AM 28.2664 -82.5839 252° West 420 483 32,000 2,160 Climbing Jacksonville Center
11:38AM 28.2667 -82.7042 270° West 388 447 33,700 2,100 Climbing Jacksonville Center
11:39AM 28.2897 -82.8194 283° West 383 441 36,200 2,040 Climbing Jacksonville Center
11:40AM 28.3086 -82.9186 282° West 371 427 37,800 900 Climbing Jacksonville Center
11:41AM 28.3314 -83.0294 283° West 365 420 38,000 60 Climbing Jacksonville Center
11:42AM 28.3500 -83.1425 281° West 365 420 38,000  Level Jacksonville Center
11:43AM 28.3706 -83.2536 282° West 370 426 38,000  Level Jacksonville Center
11:44AM 28.3892 -83.3644 281° West 370 426 38,000  Level Jacksonville Center
11:45AM 28.4072 -83.4778 280° West 370 426 38,000  Level Jacksonville Center
11:46AM 28.4297 -83.5961 282° West 363 418 38,000  Level Jacksonville Center
11:47AM 28.4500 -83.7072 282° West 355 409 38,000  Level Jacksonville Center
11:48AM 28.4681 -83.8158 281° West 355 409 38,000  Level Jacksonville Center
11:49AM 28.4881 -83.9247 282° West 355 409 38,000  Level Jacksonville Center
11:50AM 28.5058 -84.0358 280° West 355 409 38,000  Level Jacksonville Center
11:51AM 28.5256 -84.1472 281° West 355 409 38,000  Level Jacksonville Center
11:52AM 28.5453 -84.2608 281° West 355 409 38,000  Level Jacksonville Center
11:53AM 28.5608 -84.3744 279° West 360 414 38,000  Level Jacksonville Center
11:54AM 28.5825 -84.4883 282° West 366 421 38,000  Level Jacksonville Center
11:55AM 28.6019 -84.5975 281° West 366 421 38,000  Level Jacksonville Center
11:56AM 28.6211 -84.7089 281° West 366 421 38,000  Level Jacksonville Center
11:57AM 28.6406 -84.8203 281° West 366 421 38,000  Level Jacksonville Center
11:58AM 28.6597 -84.9319 281° West 366 421 38,000  Level Jacksonville Center
11:59AM 28.6767 -85.0436 280° West 361 415 38,000  Level Jacksonville Center
12:00PM 28.6956 -85.1575 281° West 361 415 38,000  Level Jacksonville Center
12:01PM 28.7144 -85.2692 281° West 361 415 38,000  Level Jacksonville Center
12:02PM 28.7311 -85.3808 280° West 361 415 38,000  Level Jacksonville Center
12:03PM 28.7517 -85.4928 282° West 361 415 38,000  Level Jacksonville Center
12:04PM 28.7683 -85.6044 280° West 361 415 38,000  Level Jacksonville Center
12:05PM 28.7867 -85.7186 280° West 366 421 38,000  Level Jacksonville Center
12:06PM 28.8031 -85.8281 280° West 366 421 38,000  Level Jacksonville Center
12:07PM 28.8233 -85.9425 281° West 366 421 38,000  Level Jacksonville Center
12:08PM 28.8394 -86.0494 280° West 366 421 38,000  Level Jacksonville Center
12:09PM 28.8575 -86.1639 280° West 366 421 38,000  Level Jacksonville Center
12:10PM 28.8772 -86.2808 281° West 366 421 38,000  Level Jacksonville Center
12:11PM 28.8953 -86.3928 280° West 366 421 38,000  Level Jacksonville Center
12:12PM 28.9108 -86.5094 279° West 371 427 38,000  Level Jacksonville Center
12:13PM 28.9283 -86.6239 280° West 371 427 38,000  Level Jacksonville Center
12:14PM 28.9458 -86.7361 280° West 371 427 38,000  Level Jacksonville Center
12:17PM 28.9831 -86.9881 280° West 368 423 38,000  Level Houston Center
12:18PM 29.0014 -87.1017 280° West 367 422 38,000  Level Houston Center
12:19PM 29.0183 -87.2147 280° West 364 419 38,000  Level Houston Center
12:20PM 29.0339 -87.3272 279° West 361 415 38,000  Level Houston Center
12:21PM 29.0542 -87.4608 280° West 358 412 38,000  Level Houston Center
12:22PM 29.0697 -87.5728 279° West 359 413 38,000  Level Houston Center
12:23PM 29.0861 -87.6853 279° West 359 413 38,000  Level Houston Center
12:24PM 29.1014 -87.7972 279° West 358 412 38,000  Level Houston Center
12:25PM 29.1167 -87.9097 279° West 360 414 38,000  Level Houston Center
12:26PM 29.1333 -88.0219 280° West 360 414 38,000  Level Houston Center
12:27PM 29.1514 -88.1508 279° West 353 406 38,000  Level Houston Center
12:28PM 29.1658 -88.2608 279° West 353 406 38,000  Level Houston Center
12:29PM 29.1814 -88.3711 279° West 352 405 38,000  Level Houston Center
12:30PM 29.1964 -88.4800 279° West 350 403 38,000  Level Houston Center
12:31PM 29.2144 -88.6122 279° West 351 404 38,000  Level Houston Center
12:32PM 29.2300 -88.7225 279° West 352 405 38,000  Level Houston Center
12:33PM 29.2442 -88.8328 278° West 352 405 38,000  Level Houston Center
12:34PM 29.2594 -88.9422 279° West 352 405 38,000  Level Houston Center
12:35PM 29.2706 -89.0333 278° West 358 412 38,000  Level Houston Center
12:36PM 29.2894 -89.1681 279° West 359 413 38,000  Level Houston Center
12:37PM 29.3069 -89.3036 278° West 361 415 38,000  Level Houston Center
12:38PM 29.3217 -89.4167 279° West 361 415 38,000  Level Houston Center
12:39PM 29.3364 -89.5292 279° West 358 412 38,000  Level Houston Center
12:40PM 29.3503 -89.6433 278° West 361 415 38,000  Level Houston Center
12:41PM 29.3650 -89.7569 278° West 362 417 38,000  Level Houston Center
12:42PM 29.3792 -89.8686 278° West 356 410 38,000  Level Houston Center
12:43PM 29.3925 -89.9814 278° West 356 410 38,000  Level Houston Center
12:45PM 29.4092 -90.1161 278° West 356 410 38,000  Level Houston Center
12:46PM 29.4239 -90.2269 279° West 353 406 38,000  Level Houston Center
12:47PM 29.4372 -90.3400 278° West 355 409 38,000  Level Houston Center
12:48PM 29.4508 -90.4525 278° West 356 410 38,000  Level Houston Center
12:49PM 29.4647 -90.5664 278° West 357 411 38,000  Level Houston Center
12:50PM 29.4786 -90.6775 278° West 357 411 38,000  Level Houston Center
12:51PM 29.4942 -90.8133 278° West 358 412 38,000  Level Houston Center
12:52PM 29.5097 -90.9286 279° West 362 417 38,000  Level Houston Center
12:53PM 29.5225 -91.0417 277° West 359 413 38,000  Level Houston Center
12:54PM 29.5369 -91.1547 278° West 359 413 38,000  Level Houston Center
12:55PM 29.5467 -91.2694 276° West 361 415 38,000  Level Houston Center
12:56PM 29.5547 -91.3825 275° West 357 411 38,000  Level Houston Center
12:57PM 29.5631 -91.5164 274° West 354 407 38,000  Level Houston Center
12:58PM 29.5694 -91.6269 274° West 350 403 38,000  Level Houston Center
12:59PM 29.5747 -91.7442 273° West 350 403 38,000  Level Houston Center
01:00PM 29.5808 -91.8553 274° West 350 403 38,000  Level Houston Center
01:01PM 29.5883 -91.9664 274° West 349 402 38,000  Level Houston Center
01:02PM 29.5956 -92.0783 274° West 353 406 38,000  Level Houston Center
01:03PM 29.6019 -92.1906 274° West 352 405 38,000  Level Houston Center
01:04PM 29.6092 -92.3042 274° West 355 409 38,000  Level Houston Center
01:05PM 29.6169 -92.4406 274° West 358 412 38,000  Level Houston Center
01:06PM 29.6239 -92.5544 274° West 356 410 38,000  Level Houston Center
01:07PM 29.6303 -92.6689 274° West 358 412 38,000  Level Houston Center
01:08PM 29.6358 -92.7842 273° West 361 415 38,000  Level Houston Center
01:09PM 29.6431 -92.8983 274° West 358 412 38,000  Level Houston Center
01:10PM 29.6483 -93.0131 273° West 360 414 38,000  Level Houston Center
01:11PM 29.6564 -93.1500 274° West 358 412 38,000  Level Houston Center
01:12PM 29.6614 -93.2647 273° West 359 413 38,000  Level Houston Center
01:13PM 29.6678 -93.3786 274° West 357 411 38,000  Level Houston Center
01:14PM 29.6733 -93.4933 273° West 358 412 38,000  Level Houston Center
01:16PM 29.6786 -93.6061 273° West 355 409 38,000  Level Houston Center
01:17PM 29.6842 -93.7203 273° West 356 410 38,000  Level Houston Center
01:18PM 29.6897 -93.8339 273° West 355 409 38,000  Level Houston Center
01:19PM 29.6956 -93.9697 273° West 354 407 38,000  Level Houston Center
01:20PM 29.7011 -94.0833 273° West 355 409 38,000  Level Houston Center
01:21PM 29.7067 -94.2014 273° West 355 409 38,000  Level Houston Center
01:22PM 29.7108 -94.3144 272° West 355 409 38,000  Level Houston Center
01:23PM 29.7164 -94.4281 273° West 357 411 38,000  Level Houston Center
01:24PM 29.7214 -94.5417 273° West 358 412 38,000  Level Houston Center
01:25PM 29.7256 -94.6550 272° West 357 411 38,000  Level Houston Center
01:26PM 29.7319 -94.7911 273° West 356 410 38,000  Level Houston Center
01:27PM 29.7361 -94.9053 272° West 359 413 38,000  Level Houston Center
01:28PM 29.7408 -95.0178 273° West 357 411 38,000  Level Houston Center
01:29PM 29.7475 -95.1283 274° West 355 409 38,000  Level Houston Center
01:30PM 29.7511 -95.2631 272° West 357 411 38,000  Level Houston Center
01:31PM 29.7542 -95.3733 272° West 351 404 38,000  Level Houston Center
01:32PM 29.7569 -95.4842 272° West 349 402 38,000  Level Houston Center
01:33PM 29.7614 -95.5956 273° West 350 403 38,000  Level Houston Center
01:34PM 29.7650 -95.7067 272° West 348 400 38,000  Level Houston Center
01:35PM 29.7683 -95.8422 272° West 354 407 38,000  Level Houston Center
01:36PM 29.7717 -95.9542 272° West 352 405 38,000  Level Houston Center
01:37PM 29.7744 -96.0622 272° West 353 406 38,000  Level Houston Center
01:38PM 29.7786 -96.1756 272° West 356 410 38,000  Level Houston Center
01:39PM 29.7892 -96.3100 275° West 354 407 38,000  Level Houston Center
01:40PM 29.7964 -96.4219 274° West 352 405 38,000  Level Houston Center
01:41PM 29.8047 -96.5342 275° West 353 406 38,000  Level Houston Center
01:42PM 29.8125 -96.6458 275° West 352 405 38,000 -1,080 Level Houston Center
01:43PM 29.8217 -96.7561 276° West 350 403 35,800 -2,520 Descending Houston Center
01:45PM 29.8308 -96.8872 275° West 347 399 32,800 -2,280 Descending Houston Center
01:46PM 29.8400 -97.0042 275° West 366 421 31,100 -1,920 Descending Houston Center
01:47PM 29.8472 -97.1247 274° West 377 434 28,900 -2,280 Descending Houston Center
01:48PM 29.8564 -97.2400 275° West 367 422 26,500 -2,160 Descending Houston Center
01:49PM 29.8639 -97.3539 274° West 360 414 24,500 -2,280 Descending Houston Center
01:49PM 29.8686 -97.4458 273° West 361 415 22,400 -2,760 Descending Houston Center
01:50PM 29.8756 -97.5367 275° West 354 407 20,400 -2,880 Descending Houston Center
01:51PM 29.8800 -97.6083 274° West 356 410 18,800 -2,580 Descending Houston Center
01:51PM 29.8836 -97.6633 274° West 363 418 17,800 -2,520 Descending Houston Center
01:52PM 29.8883 -97.7267 275° West 369 425 16,200 -3,000 Descending Houston Center
01:52PM 29.8922 -97.7708 276° West 370 426 15,100 -2,640 Descending Houston Center
01:53PM 29.8961 -97.8489 273° West 355 409 13,500 -2,400 Descending Houston Center
01:53PM 29.8881 -97.8822 254° West 355 409 12,700 -2,460 Descending Houston Center
01:54PM 29.8583 -97.9542 245° Southwest 357 411 11,000 -2,280 Descending Houston Center
01:54PM 29.8456 -97.9864 245° Southwest 356 410 10,400 -900 Descending Houston Center
01:55PM 29.8153 -98.0575 244° Southwest 327 376 10,100 -360 Descending Houston Center
01:55PM 29.8006 -98.0883 241° Southwest 293 337 10,000 -540 Descending Houston Center
01:56PM 29.7808 -98.1383 246° West 281 323 9,600 -720 Descending Houston Center
01:56PM 29.7683 -98.1694 245° Southwest 266 306 9,300 -1,020 Descending Houston Center
01:57PM 29.7444 -98.2244 243° Southwest 279 321 8,600 -1,260 Descending Houston Center
01:58PM 29.7028 -98.3219 244° Southwest 278 320 6,900 -1,140 Descending Houston Center
01:59PM 29.6717 -98.3931 243° Southwest 244 281 6,100 -720 Descending Houston Center
02:00PM 29.6744 -98.4492 273° West 228 262 5,600 -1,140 Descending Houston Center
02:01PM 29.7089 -98.5175 300° West 227 261 4,000 -1,260 Descending Houston Center
02:02PM 29.6839 -98.5719 242° Southwest 215 247 3,000 -540 Descending Houston Center
02:03PM 29.6289 -98.5939 199° South 210 242 3,000 -300 Level Houston Center
02:04PM 29.5953 -98.5522 133° Southeast 180 207 2,400 -720 Descending Houston Center
02:05PM 29.5664 -98.5150 132° Southeast 151 174 1,600 -780 Descending Houston Center
02:06PM 29.5419 -98.4828 131° Southeast 137 158 800 -780 Descending Houston Center
02:08PM 29.5333 -98.4667 186° South  Level FlightAware Approximate
02:15PM 29.5340 -98.4691 186° South  Level Estimated